Coral Ruby — 3ERR6 — position and weather

sailwx.info

Track history (hours):
 
Tides and Currents Weather Stations Pressure Air Temp Water Temp Dewpoint Dewpoint Depression Visibility Wind Speed Wind Dir Waves Ship Positions

Coral Ruby

Last reported at 2017-Feb-13 21:30 UTC. Time now 2017-Feb-25 05:25 UTC.
Position N 34°38' E 135°00'.
Warning: this ship's position is 11 days out of date.

Length 225 m; draft 13 m.

Type: Ship. MMSI: 370150000.

Date/timePositionNaut miles runAvg speedWind from/ knotsBaromVisibWave heightAir tempDewpointWater temp
2017-Feb-13 21:30N 34°38' E 135°00'9 9.0
2017-Feb-13 20:33N 34°33' E 135°09'0 0.3
2017-Feb-13 19:33N 34°33' E 135°09'0 0.1
2017-Feb-13 18:33N 34°33' E 135°09'0 0.0
2017-Feb-13 17:33N 34°33' E 135°09'0 0.0
2017-Feb-13 16:33N 34°33' E 135°09'0 0.0
2017-Feb-13 15:27N 34°33' E 135°09'0 0.0
2017-Feb-13 14:27N 34°33' E 135°09'0 0.0
2017-Feb-13 13:27N 34°33' E 135°09'0 0.5
2017-Feb-13 12:33N 34°33' E 135°09'9 9.2
2017-Feb-13 11:33N 34°25' E 135°04'1312.6
2017-Feb-13 10:33N 34°13' E 134°60'6 6.2
2017-Feb-13 09:33N 34°06' E 134°59'8 7.3
2017-Feb-13 08:30N 33°59' E 134°59'  
Track history (hours):
 
Tides and Currents Weather Stations Pressure Air Temp Water Temp Dewpoint Dewpoint Depression Visibility Wind Speed Wind Dir Waves Ship Positions

Coral Ruby

Last reported at 2017-Feb-13 21:30 UTC. Time now 2017-Feb-25 05:25 UTC.
Position N 34°38' E 135°00'.
Warning: this ship's position is 11 days out of date.

Length 225 m; draft 13 m.

Type: Ship. MMSI: 370150000.

Date/timePositionNaut miles runAvg speedWind from/ knotsBaromVisibWave heightAir tempDewpointWater temp
2017-Feb-13 21:30N 34°38' E 135°00'9 9.0
2017-Feb-13 20:33N 34°33' E 135°09'0 0.3
2017-Feb-13 19:33N 34°33' E 135°09'0 0.1
2017-Feb-13 18:33N 34°33' E 135°09'0 0.0
2017-Feb-13 17:33N 34°33' E 135°09'0 0.0
2017-Feb-13 16:33N 34°33' E 135°09'0 0.0
2017-Feb-13 15:27N 34°33' E 135°09'0 0.0
2017-Feb-13 14:27N 34°33' E 135°09'0 0.0
2017-Feb-13 13:27N 34°33' E 135°09'0 0.5
2017-Feb-13 12:33N 34°33' E 135°09'9 9.2
2017-Feb-13 11:33N 34°25' E 135°04'1312.6
2017-Feb-13 10:33N 34°13' E 134°60'6 6.2
2017-Feb-13 09:33N 34°06' E 134°59'8 7.3
2017-Feb-13 08:30N 33°59' E 134°59'  

Dump ship's entire track history